createdAt,value
2022-09-26T00:00:13.944Z,1.70
2022-09-26T00:02:51.354Z,1.77
2022-09-26T00:05:29.306Z,1.42
2022-09-26T00:08:03.843Z,1.35
2022-09-26T00:10:36.706Z,1.63
2022-09-26T00:13:11.589Z,1.85
2022-09-26T00:16:08.575Z,1.98
2022-09-26T00:18:56.567Z,1.70
2022-09-26T00:24:19.312Z,1.85
2022-09-26T00:27:34.439Z,1.90
2022-09-26T00:30:03.072Z,1.90
2022-09-26T00:32:44.793Z,1.92
2022-09-26T00:35:14.658Z,2.00
2022-09-26T00:37:52.444Z,1.95
2022-09-26T00:40:26.780Z,2.00
2022-09-26T00:43:02.850Z,2.45
2022-09-26T00:45:34.708Z,2.10
2022-09-26T00:48:28.104Z,2.10
2022-09-26T00:51:19.032Z,2.15
2022-09-26T00:54:09.069Z,2.27
2022-09-26T00:56:43.939Z,2.13
2022-09-26T00:59:31.537Z,1.58
2022-09-26T01:02:02.667Z,1.63
2022-09-26T01:04:54.533Z,1.75
2022-09-26T01:10:02.617Z,1.80
2022-09-26T01:12:35.020Z,1.88
2022-09-26T01:15:08.259Z,1.70
2022-09-26T01:17:50.609Z,2.08
2022-09-26T01:20:32.236Z,1.70
2022-09-26T01:23:37.992Z,1.50
2022-09-26T01:26:49.197Z,1.70
2022-09-26T01:30:02.714Z,2.10
2022-09-26T01:33:07.776Z,1.65
2022-09-26T01:36:07.188Z,1.85
2022-09-26T01:38:54.593Z,1.95
2022-09-26T01:41:48.390Z,1.40
2022-09-26T01:44:34.803Z,1.38
2022-09-26T01:47:14.231Z,1.33
2022-09-26T01:50:07.192Z,1.73
2022-09-26T01:52:53.647Z,1.90
2022-09-26T01:55:44.582Z,1.60
2022-09-26T01:58:33.281Z,1.52
2022-09-26T02:01:17.412Z,1.50
2022-09-26T02:04:05.331Z,1.55
2022-09-26T02:06:45.834Z,1.90
2022-09-26T02:09:42.084Z,1.90
2022-09-26T02:12:50.056Z,2.03
2022-09-26T02:15:25.809Z,2.20
2022-09-26T02:18:05.874Z,2.33
2022-09-26T02:20:41.472Z,2.20
2022-09-26T02:23:23.818Z,2.20
2022-09-26T02:25:57.615Z,2.17
2022-09-26T02:28:27.055Z,2.63
2022-09-26T02:30:56.687Z,2.30
2022-09-26T02:33:28.516Z,3.13
2022-09-26T02:38:27.746Z,2.80
2022-09-26T02:41:15.223Z,2.95
2022-09-26T02:44:21.580Z,3.00
2022-09-26T02:47:18.488Z,2.75
2022-09-26T02:50:20.105Z,2.75
2022-09-26T02:53:02.148Z,2.50
2022-09-26T02:55:58.753Z,2.55
2022-09-26T02:58:41.157Z,2.65
2022-09-26T03:01:19.306Z,3.28
2022-09-26T03:04:10.668Z,2.85
2022-09-26T03:06:46.992Z,2.97
2022-09-26T03:09:21.693Z,3.00
2022-09-26T03:12:02.607Z,3.40
2022-09-26T03:14:49.386Z,4.05
2022-09-26T03:17:29.388Z,3.35
2022-09-26T03:20:10.243Z,3.60
2022-09-26T03:23:02.822Z,3.92
2022-09-26T03:25:49.988Z,3.92
2022-09-26T03:28:37.647Z,4.10
2022-09-26T03:31:35.431Z,3.97
2022-09-26T03:34:05.346Z,3.90
2022-09-26T03:36:33.268Z,4.57
2022-09-26T03:39:04.217Z,4.40
2022-09-26T03:41:34.221Z,4.50
2022-09-26T03:44:02.893Z,4.18
2022-09-26T03:46:37.731Z,4.55
2022-09-26T03:49:12.277Z,4.57
2022-09-26T03:51:42.196Z,3.92
2022-09-26T03:54:08.982Z,4.40
2022-09-26T03:56:38.594Z,4.18
2022-09-26T03:59:06.768Z,4.03
2022-09-26T04:01:41.376Z,3.78
2022-09-26T04:04:16.238Z,4.03
2022-09-26T04:06:43.191Z,4.10
2022-09-26T04:09:15.900Z,4.15
2022-09-26T04:11:50.432Z,3.92
2022-09-26T04:14:24.061Z,3.97
2022-09-26T04:17:07.839Z,3.83
2022-09-26T04:19:40.726Z,3.58
2022-09-26T04:22:11.259Z,4.30
2022-09-26T04:24:40.051Z,4.60
2022-09-26T04:27:08.990Z,4.30
2022-09-26T04:29:38.862Z,4.88
2022-09-26T04:32:10.145Z,4.47
2022-09-26T04:34:41.201Z,4.40
2022-09-26T04:37:10.366Z,4.80
2022-09-26T04:39:55.078Z,4.35
2022-09-26T04:42:23.553Z,4.35
2022-09-26T04:44:54.541Z,4.50
2022-09-26T04:47:49.284Z,4.93
2022-09-26T05:00:03.773Z,5.20
2022-09-26T05:02:40.242Z,4.55
2022-09-26T05:05:18.368Z,4.95
2022-09-26T05:10:56.942Z,5.68
2022-09-26T05:13:24.094Z,5.40
2022-09-26T05:15:51.219Z,5.97
2022-09-26T05:18:25.216Z,6.20
2022-09-26T05:24:44.616Z,5.45
2022-09-26T05:27:17.744Z,5.57
2022-09-26T05:29:57.908Z,5.50
2022-09-26T05:32:34.919Z,5.32
2022-09-26T05:35:18.453Z,5.35
2022-09-26T05:38:01.365Z,5.13
2022-09-26T05:40:38.298Z,5.78
2022-09-26T05:43:07.176Z,5.50
2022-09-26T05:45:35.193Z,4.78
2022-09-26T05:48:03.917Z,5.03
2022-09-26T05:50:38.438Z,5.28
2022-09-26T05:53:13.018Z,4.80
2022-09-26T05:55:40.152Z,5.65
2022-09-26T05:58:10.061Z,4.65
2022-09-26T06:00:37.101Z,5.20
2022-09-26T06:03:05.803Z,4.90
2022-09-26T06:05:37.833Z,4.88
2022-09-26T06:08:14.629Z,4.47
2022-09-26T06:10:48.128Z,4.25
2022-09-26T06:13:18.076Z,4.95
2022-09-26T06:15:50.748Z,4.55
2022-09-26T06:18:53.208Z,4.55
2022-09-26T06:21:27.186Z,4.50
2022-09-26T06:24:03.002Z,4.47
2022-09-26T06:26:37.543Z,4.05
2022-09-26T06:29:11.010Z,4.07
2022-09-26T06:31:45.222Z,4.50
2022-09-26T06:34:15.066Z,4.80
2022-09-26T06:36:48.948Z,3.97
2022-09-26T06:39:17.918Z,3.88
2022-09-26T06:41:47.734Z,4.20
2022-09-26T06:44:15.169Z,4.00
2022-09-26T06:46:47.525Z,3.85
2022-09-26T06:49:16.218Z,4.60
2022-09-26T06:51:46.773Z,4.68
2022-09-26T06:54:18.107Z,4.50
2022-09-26T06:59:18.485Z,3.60
2022-09-26T07:01:50.583Z,3.60
2022-09-26T07:04:20.599Z,3.80
2022-09-26T07:07:02.908Z,3.85
2022-09-26T07:09:32.279Z,3.50
2022-09-26T07:12:15.569Z,3.60
2022-09-26T07:14:53.623Z,4.03
2022-09-26T07:17:31.552Z,3.35
2022-09-26T07:20:04.594Z,3.42
2022-09-26T07:22:39.338Z,3.30
2022-09-26T07:25:14.328Z,3.10
2022-09-26T07:27:42.340Z,3.05
2022-09-26T07:30:10.081Z,2.78
2022-09-26T07:32:42.703Z,3.22
2022-09-26T07:35:20.453Z,2.33
2022-09-26T07:38:00.990Z,2.83
2022-09-26T07:40:29.147Z,2.78
2022-09-26T07:43:19.254Z,3.10
2022-09-26T07:45:56.351Z,3.58
2022-09-26T07:48:26.175Z,3.03
2022-09-26T07:50:58.712Z,2.58
2022-09-26T07:53:27.963Z,2.58
2022-09-26T07:56:06.704Z,2.80
2022-09-26T07:58:41.146Z,2.30
2022-09-26T08:01:15.128Z,2.28
2022-09-26T08:03:44.609Z,2.55
2022-09-26T08:06:13.817Z,2.17
2022-09-26T08:08:42.417Z,2.13
2022-09-26T08:11:17.146Z,2.20
2022-09-26T08:13:51.373Z,2.33
2022-09-26T08:16:24.886Z,2.08
2022-09-26T08:18:53.163Z,2.00
2022-09-26T08:21:31.922Z,2.10
2022-09-26T08:24:01.272Z,2.08
2022-09-26T08:26:30.769Z,2.70
2022-09-26T08:28:57.528Z,1.88
2022-09-26T08:31:27.120Z,2.75
2022-09-26T08:33:56.776Z,2.47
2022-09-26T08:36:23.768Z,2.40
2022-09-26T08:38:50.681Z,2.22
2022-09-26T08:41:35.204Z,2.33
2022-09-26T08:44:26.804Z,2.50
2022-09-26T08:49:50.521Z,2.65
2022-09-26T08:52:27.381Z,2.58
2022-09-26T08:55:05.100Z,2.10
2022-09-26T08:57:49.676Z,2.03
2022-09-26T09:00:20.616Z,2.13
2022-09-26T09:03:05.134Z,2.40
2022-09-26T09:05:35.548Z,2.40
2022-09-26T09:08:11.511Z,2.42
2022-09-26T09:10:47.858Z,2.38
2022-09-26T09:13:34.295Z,2.55
2022-09-26T09:16:32.150Z,2.35
2022-09-26T09:19:17.123Z,2.70
2022-09-26T09:21:58.634Z,2.30
2022-09-26T09:24:41.143Z,2.20
2022-09-26T09:30:48.221Z,3.25
2022-09-26T09:33:30.357Z,3.10
2022-09-26T09:36:11.056Z,3.17
2022-09-26T09:38:58.198Z,3.47
2022-09-26T09:41:38.705Z,3.67
2022-09-26T09:44:34.022Z,3.60
2022-09-26T09:47:20.447Z,3.63
2022-09-26T09:50:16.922Z,3.65
2022-09-26T09:56:17.258Z,3.88
2022-09-26T09:59:12.384Z,4.18
2022-09-26T10:01:47.782Z,4.25
2022-09-26T10:04:47.270Z,4.43
2022-09-26T10:07:25.912Z,4.78
2022-09-26T10:12:48.720Z,4.47
2022-09-26T10:15:22.528Z,4.72
2022-09-26T10:18:24.678Z,4.72
2022-09-26T10:21:07.792Z,5.07
2022-09-26T10:23:50.462Z,5.10
2022-09-26T10:26:33.525Z,4.57
2022-09-26T10:29:44.945Z,5.40
2022-09-26T10:32:26.426Z,5.90
2022-09-26T10:35:34.150Z,5.93
2022-09-26T10:41:32.249Z,6.35
2022-09-26T10:44:20.320Z,6.28
2022-09-26T10:53:37.489Z,5.88
2022-09-26T10:56:22.435Z,6.30
2022-09-26T10:59:13.000Z,5.57
2022-09-26T11:02:03.940Z,5.90
2022-09-26T11:04:54.643Z,5.38
2022-09-26T11:07:34.096Z,6.00
2022-09-26T11:10:09.577Z,7.05
2022-09-26T11:13:22.601Z,6.20
2022-09-26T11:16:37.151Z,6.60
2022-09-26T11:19:33.545Z,5.32
2022-09-26T11:22:27.459Z,5.70
2022-09-26T11:25:10.826Z,6.03
2022-09-26T11:30:51.122Z,6.30
2022-09-26T11:33:35.175Z,5.63
2022-09-26T11:43:15.583Z,5.90
2022-09-26T11:46:32.338Z,5.30
2022-09-26T11:49:40.914Z,5.22
2022-09-26T12:04:55.120Z,5.30
2022-09-26T12:08:08.871Z,6.35
2022-09-26T12:20:44.448Z,5.95
2022-09-26T12:27:23.382Z,5.72
2022-09-26T12:35:07.666Z,5.63
2022-09-26T12:37:22.062Z,5.00
2022-09-26T12:40:23.327Z,5.63
2022-09-26T12:44:00.280Z,5.28
2022-09-26T12:47:20.508Z,4.05
2022-09-26T12:50:31.739Z,4.03
2022-09-26T12:54:20.972Z,4.20
2022-09-26T13:07:25.016Z,3.90
2022-09-26T13:17:12.413Z,3.88
2022-09-26T13:20:16.866Z,5.07
2022-09-26T13:26:56.474Z,4.30
2022-09-26T13:30:35.283Z,4.10
2022-09-26T13:44:03.193Z,2.90
2022-09-26T13:47:17.295Z,2.50
2022-09-26T13:50:45.015Z,2.30
2022-09-26T13:54:06.913Z,2.28
2022-09-26T13:56:55.401Z,1.90
2022-09-26T14:03:28.127Z,1.50
2022-09-26T14:13:29.237Z,1.75
2022-09-26T14:16:38.158Z,1.67
2022-09-26T14:19:59.582Z,1.77
2022-09-26T14:23:25.539Z,1.73
2022-09-26T14:26:20.131Z,1.77
2022-09-26T14:29:36.953Z,2.28
2022-09-26T14:32:49.461Z,2.10
2022-09-26T14:36:23.513Z,2.10
2022-09-26T14:39:18.223Z,2.10
2022-09-26T14:42:28.292Z,2.28
2022-09-26T14:45:20.538Z,2.13
2022-09-26T14:48:09.035Z,1.88
2022-09-26T14:54:18.903Z,2.53
2022-09-26T14:57:20.884Z,2.40
2022-09-26T14:59:58.882Z,1.88
2022-09-26T15:03:15.623Z,2.33
2022-09-26T15:12:45.141Z,2.22
2022-09-26T15:15:58.176Z,1.50
2022-09-26T15:18:56.552Z,1.98
2022-09-26T15:22:11.758Z,2.17
2022-09-26T15:32:09.034Z,2.00
2022-09-26T15:35:05.985Z,2.08
2022-09-26T15:48:11.983Z,1.80
2022-09-26T15:57:46.293Z,3.65
2022-09-26T16:16:18.301Z,1.73
2022-09-26T16:22:32.931Z,1.50
2022-09-26T16:35:45.305Z,1.60
2022-09-26T16:42:19.993Z,1.70
2022-09-26T16:45:26.480Z,2.00
2022-09-26T16:52:28.629Z,1.63
2022-09-26T17:04:53.991Z,4.28
2022-09-26T17:07:29.672Z,1.50
2022-09-26T17:12:57.039Z,1.27
2022-09-26T17:15:30.416Z,1.67
2022-09-26T17:27:41.261Z,2.08
2022-09-26T17:44:12.686Z,3.22
2022-09-26T17:46:44.416Z,2.70
2022-09-26T17:50:02.223Z,3.10
2022-09-26T17:58:55.523Z,2.88
2022-09-26T18:02:00.657Z,3.13
2022-09-26T18:05:11.039Z,2.50
2022-09-26T18:07:48.079Z,2.28
2022-09-26T18:10:36.801Z,2.90
2022-09-26T18:14:09.663Z,2.70
2022-09-26T18:16:19.652Z,2.63
2022-09-26T18:18:54.083Z,3.03
2022-09-26T18:24:41.706Z,2.30
2022-09-26T18:30:38.367Z,3.30
2022-09-26T18:33:09.480Z,2.92
2022-09-26T18:36:27.135Z,2.78
2022-09-26T18:39:12.419Z,4.18
2022-09-26T18:41:53.931Z,2.90
2022-09-26T18:44:40.023Z,1.90
2022-09-26T18:47:32.817Z,1.95
2022-09-26T18:53:00.485Z,1.45
2022-09-26T18:55:31.890Z,1.95
2022-09-26T19:01:10.226Z,1.52
2022-09-26T19:04:04.962Z,1.60
2022-09-26T19:06:39.280Z,1.20
2022-09-26T19:09:23.313Z,2.10
2022-09-26T19:17:41.590Z,1.25
2022-09-26T19:20:16.898Z,1.45
2022-09-26T19:22:46.696Z,1.77
2022-09-26T19:31:38.484Z,1.90
2022-09-26T19:34:17.009Z,1.92
2022-09-26T19:36:54.893Z,1.48
2022-09-26T19:42:26.774Z,1.25
2022-09-26T19:45:22.967Z,1.58
2022-09-26T19:48:25.814Z,1.40
2022-09-26T19:51:16.895Z,2.10
2022-09-26T19:53:54.974Z,1.60
2022-09-26T19:56:48.815Z,1.50
2022-09-26T20:00:12.004Z,2.10
2022-09-26T20:06:22.823Z,2.45
2022-09-26T20:12:16.780Z,2.30
2022-09-26T20:15:07.608Z,1.80
2022-09-26T20:27:35.371Z,1.92
2022-09-26T20:30:02.785Z,1.58
2022-09-26T20:35:24.363Z,1.77
2022-09-26T20:41:46.335Z,2.53
2022-09-26T20:47:27.450Z,3.17
2022-09-26T20:50:07.862Z,2.08
2022-09-26T20:55:54.009Z,2.17
2022-09-26T21:01:38.204Z,2.53
2022-09-26T21:04:08.762Z,2.25
2022-09-26T21:06:41.082Z,2.50
2022-09-26T21:09:30.873Z,1.52
2022-09-26T21:12:23.100Z,1.88
2022-09-26T21:15:03.987Z,1.77
2022-09-26T21:18:20.434Z,1.35
2022-09-26T21:24:39.336Z,1.50
2022-09-26T21:31:34.598Z,1.02
2022-09-26T21:41:41.735Z,1.70
2022-09-26T21:47:29.855Z,1.20
2022-09-26T21:51:13.292Z,1.73
2022-09-26T21:53:42.320Z,1.45
2022-09-26T21:56:43.934Z,1.10
2022-09-26T22:02:56.801Z,1.40
2022-09-26T22:06:31.058Z,1.10
2022-09-26T22:10:03.046Z,0.82
2022-09-26T22:13:36.608Z,2.35
2022-09-26T22:16:20.585Z,0.73
2022-09-26T22:19:18.226Z,0.80
2022-09-26T22:22:22.280Z,0.70
2022-09-26T22:30:22.521Z,0.50
2022-09-26T22:33:34.722Z,0.75
2022-09-26T22:36:09.844Z,0.70
2022-09-26T22:39:11.233Z,0.55
2022-09-26T22:41:50.140Z,0.98
2022-09-26T22:47:57.201Z,0.60
2022-09-26T22:50:59.492Z,0.93
2022-09-26T22:53:59.581Z,0.57
2022-09-26T22:56:44.786Z,0.88
2022-09-26T22:59:14.192Z,0.40
2022-09-26T23:02:02.222Z,0.70
2022-09-26T23:11:00.294Z,0.55
2022-09-26T23:17:22.711Z,0.35
2022-09-26T23:23:27.271Z,0.95
2022-09-26T23:29:49.793Z,0.40
2022-09-26T23:35:39.706Z,0.73
2022-09-26T23:38:19.871Z,0.85
2022-09-26T23:44:40.564Z,0.50
2022-09-26T23:47:09.924Z,0.50
2022-09-26T23:49:41.006Z,0.90
2022-09-26T23:52:25.111Z,0.70
2022-09-26T23:55:22.904Z,0.80
2022-09-26T23:58:13.393Z,0.73
